• Join FlightAware (Why Join?)
  • Login
  • US Flag 
12:05AM EST


 

Airport Tracker/Info


-or-


 

Live Flight TrackerFlight Track Log ✈ N650CH ✈ 29-Dec-2013 ✈ KTWF - KSTP

Flight Track Log - Related Links

Times and Time Zones

All times are in EST time to prevent confusion due to time zone crossing. See the N650CH flight status page for this flight to view local times or setup timezone preferences in your user account.

Time Position Orientation Groundspeed Altitude Reporting Facility
EST Latitude Longitude Course Direction KTS MPH feet Rate Location/Type
03:32PM 42.5128 -114.5439 76° East 228 262 7,100  Level Salt Lake Center
03:33PM 42.5822 -114.0183 69° East  Level Estimated
03:33PM 42.5450 -114.4519 65° Northeast 307 353 10,100  Level Salt Lake Center
03:34PM 42.6152 -113.8615 71° East  Level Estimated
03:34PM 42.5219 -114.3308 104° East 341 392 12,400  Level Salt Lake Center
03:35PM 42.6481 -113.7046 71° East  Level Estimated
03:35PM 42.5428 -114.1889 79° East 356 410 15,600  Level Salt Lake Center
03:36PM 42.6807 -113.5474 70° East  Level Estimated
03:36PM 42.5672 -114.0700 74° East 346 398 17,600  Level Salt Lake Center
03:37PM 42.7091 -113.3887 76° East  Level FlightAware Approximate
03:37PM 42.5981 -113.9297 73° East 367 422 19,300  Level Salt Lake Center
03:38PM 42.6250 -113.8056 74° East 376 433 21,100 1,980 Climbing Salt Lake Center
03:39PM 42.6608 -113.6369 74° East 385 443 23,500 1,980 Climbing Salt Lake Center
03:40PM 42.6933 -113.4986 72° East 386 444 25,300 1,500 Climbing Salt Lake Center
03:41PM 42.7228 -113.3622 74° East 392 451 26,700 1,440 Climbing Salt Lake Center
03:43PM 42.7842 -113.0592 74° East 401 461 29,900 1,380 Climbing Salt Lake Center
03:44PM 42.8192 -112.8942 74° East 406 467 31,000 960 Climbing Salt Lake Center
03:45PM 42.8497 -112.7497 74° East 413 475 32,000 1,020 Climbing Salt Lake Center
03:46PM 42.8833 -112.5778 75° East 421 484 33,200 1,020 Climbing Salt Lake Center
03:47PM 42.9092 -112.4269 77° East 426 490 34,200 1,020 Climbing Salt Lake Center
03:48PM 42.9408 -112.2558 76° East 420 483 35,300 960 Climbing Salt Lake Center
03:49PM 42.9661 -112.1064 77° East 423 487 36,300 960 Climbing Salt Lake Center
03:50PM 42.9936 -111.9589 76° East 421 484 37,300 720 Climbing Salt Lake Center
03:51PM 43.0222 -111.7850 77° East 422 486 37,800 480 Climbing Salt Lake Center
03:52PM 43.0475 -111.6350 77° East 425 489 38,400 480 Climbing Salt Lake Center
03:53PM 43.0775 -111.4603 77° East 426 490 38,900 240 Climbing Salt Lake Center
03:54PM 43.1028 -111.3094 77° East 427 491 39,000  Climbing Salt Lake Center
03:55PM 43.1336 -111.1256 77° East 443 510 39,000  Level Salt Lake Center
03:56PM 43.1589 -110.9675 78° East 445 512 39,000  Level Salt Lake Center
03:57PM 43.1886 -110.7831 77° East 446 513 39,000  Level Salt Lake Center
03:58PM 43.2144 -110.6233 77° East 449 517 39,000  Level Salt Lake Center
04:00PM 43.2425 -110.4406 78° East 443 510 39,000  Level Salt Lake Center
04:01PM 43.2703 -110.2647 78° East 449 517 39,000  Level Salt Lake Center
04:02PM 43.2950 -110.1067 78° East 445 512 39,000 -60 Level Salt Lake Center
04:03PM 43.3194 -109.9461 78° East 448 516 38,900  Descending Salt Lake Center
04:04PM 43.3489 -109.7542 78° East 447 514 39,000  Climbing Salt Lake Center
04:05PM 43.3744 -109.5894 78° East 444 511 39,000  Level Salt Lake Center
04:06PM 43.3989 -109.4294 78° East 434 499 39,000  Level Salt Lake Center
04:07PM 43.4222 -109.2728 78° East 425 489 39,000 360 Level Salt Lake Center
04:08PM 43.4447 -109.1178 79° East 417 480 39,800 720 Climbing Salt Lake Center
04:09PM 43.4683 -108.9656 78° East 410 472 40,500 540 Climbing Salt Lake Center
04:10PM 43.4897 -108.8125 79° East 409 471 41,000 240 Climbing Salt Lake Center
04:11PM 43.5167 -108.6261 79° East 416 479 41,000  Level Salt Lake Center
04:12PM 43.5397 -108.4633 79° East 430 495 41,000  Level Salt Lake Center
04:13PM 43.5622 -108.2950 79° East 443 510 41,000  Level Salt Lake Center
04:14PM 43.5856 -108.1239 79° East 454 522 41,000  Level Salt Lake Center
04:15PM 43.6086 -107.9500 80° East 461 531 41,000  Level Salt Lake Center
04:16PM 43.6328 -107.7728 79° East 469 540 41,000  Level Salt Lake Center
04:17PM 43.6606 -107.5589 80° East 474 545 41,000  Level Salt Lake Center
04:18PM 43.6833 -107.3800 80° East 474 545 41,000 -60 Level Salt Lake Center
04:19PM 43.7058 -107.1997 80° East 478 550 40,900  Descending Salt Lake Center
04:20PM 43.7294 -107.0217 80° East 475 547 41,000  Climbing Salt Lake Center
04:21PM 43.7528 -106.8183 81° East 480 552 40,900  Descending Salt Lake Center
04:22PM 43.7658 -106.7272 79° East 485 558 41,000 60 Climbing Denver Center
04:23PM 43.7878 -106.5519 80° East 484 557 41,000  Level Denver Center
04:24PM 43.8133 -106.3436 80° East 489 563 41,000  Level Denver Center
04:25PM 43.8339 -106.1653 81° East 490 564 41,000  Level Denver Center
04:26PM 43.8583 -105.9561 81° East 492 566 41,000  Level Denver Center
04:27PM 43.8783 -105.7778 81° East 490 564 41,000  Level Denver Center
04:28PM 43.8953 -105.6278 81° East 491 565 41,000  Level Denver Center
04:29PM 43.9233 -105.3867 81° East 494 568 41,000 -60 Level Denver Center
04:30PM 43.9464 -105.1789 81° East 492 566 40,900 -60 Descending Denver Center
04:31PM 43.9664 -104.9992 81° East 491 565 40,900  Level Denver Center
04:32PM 43.9839 -104.8233 82° East 485 558 41,000  Climbing Denver Center
04:33PM 44.0094 -104.5883 81° East 482 555 41,000  Level Denver Center
04:34PM 44.0297 -104.3839 82° East 479 551 41,000  Level Denver Center
04:35PM 44.0450 -104.2381 82° East 477 549 41,000 -60 Level Denver Center
04:36PM 44.0675 -104.0050 82° East 477 549 40,900  Descending Denver Center
04:37PM 44.0850 -103.8306 82° East 476 548 41,000  Climbing Denver Center
04:38PM 44.1031 -103.6572 82° East 474 545 41,000  Level Denver Center
04:39PM 44.1222 -103.4539 82° East 474 545 41,000  Level Denver Center
04:40PM 44.1381 -103.2789 83° East 475 547 41,000  Level Denver Center
04:41PM 44.1564 -103.0747 83° East 476 548 41,000  Level Denver Center
04:43PM 44.1719 -102.8903 83° East 477 549 41,000  Level Denver Center
04:44PM 44.1878 -102.7061 83° East 480 552 41,000  Level Denver Center
04:45PM 44.2039 -102.5247 83° East 477 549 41,000  Level Denver Center
04:46PM 44.2206 -102.3422 83° East 476 548 41,000  Level Denver Center
04:47PM 44.2367 -102.1214 84° East 478 550 41,000  Level Denver Center
04:48PM 44.2519 -101.9383 83° East 477 549 41,000 -60 Level Denver Center
04:49PM 44.2672 -101.7561 83° East 476 548 40,900  Descending Denver Center
04:50PM 44.2800 -101.6103 83° East 476 548 41,000  Climbing Denver Center
04:51PM 44.3072 -101.3950 80° East 474 545 40,900  Descending Denver Center
04:52PM 44.3267 -101.2139 81° East 473 544 41,000  Climbing Denver Center
04:53PM 44.3500 -100.9964 81° East 474 545 41,000 -60 Level Denver Center
04:54PM 44.3694 -100.8158 81° East 474 545 40,900  Descending Minneapolis Center
04:55PM 44.3872 -100.6303 82° East 479 551 41,000  Climbing Minneapolis Center
04:56PM 44.4100 -100.4100 82° East 479 551 41,000  Level Minneapolis Center
04:57PM 44.4281 -100.2261 82° East 481 554 41,000  Level Minneapolis Center
04:58PM 44.4453 -100.0422 82° East 481 554 41,000  Level Minneapolis Center
04:59PM 44.4631 -99.8597 82° East 479 551 41,000  Level Minneapolis Center
05:00PM 44.4797 -99.6750 83° East 481 554 41,000  Level Minneapolis Center
05:01PM 44.4969 -99.4914 82° East 481 554 41,000  Level Minneapolis Center
05:02PM 44.5178 -99.2694 82° East 482 555 41,000 -60 Level Minneapolis Center
05:03PM 44.5325 -99.0833 84° East 483 556 40,900  Descending Minneapolis Center
05:04PM 44.5500 -98.8961 82° East 486 559 41,000  Climbing Minneapolis Center
05:05PM 44.5650 -98.7089 84° East 486 559 40,900  Descending Minneapolis Center
05:06PM 44.5808 -98.5217 83° East 486 559 41,000  Climbing Minneapolis Center
05:07PM 44.5969 -98.3131 84° East 490 564 41,000  Level Minneapolis Center
05:08PM 44.6119 -98.1239 84° East 490 564 41,000  Level Minneapolis Center
05:09PM 44.6264 -97.9328 84° East 492 566 41,000  Level Minneapolis Center
05:10PM 44.6403 -97.7417 84° East 493 567 41,000  Level Minneapolis Center
05:11PM 44.6553 -97.5492 84° East 497 572 41,000  Level Minneapolis Center
05:12PM 44.6689 -97.3558 84° East 498 573 41,000  Level Minneapolis Center
05:13PM 44.6850 -97.1239 84° East 498 573 41,000 -60 Level Minneapolis Center
05:15PM 44.6992 -96.9306 84° East 497 572 40,900 -780 Descending Minneapolis Center
05:16PM 44.7097 -96.7375 86° East 496 571 39,500 -1,800 Descending Minneapolis Center
05:17PM 44.7225 -96.5406 85° East 502 578 37,300 -2,340 Descending Minneapolis Center
05:18PM 44.7364 -96.3506 84° East 489 563 34,800 -2,400 Descending Minneapolis Center
05:19PM 44.7464 -96.1611 86° East 486 559 32,500 -2,340 Descending Minneapolis Center
05:20PM 44.7583 -95.9822 85° East 464 534 30,100 -2,400 Descending Minneapolis Center
05:21PM 44.7683 -95.8108 85° East 444 511 27,700 -2,400 Descending Minneapolis Center
05:22PM 44.7783 -95.6425 85° East 434 499 25,300 -2,340 Descending Minneapolis Center
05:23PM 44.7872 -95.4758 86° East 429 494 23,000 -2,160 Descending Minneapolis Center
05:24PM 44.7961 -95.3122 86° East 421 484 21,000 -2,160 Descending Minneapolis Center
05:25PM 44.8064 -95.1158 86° East 420 483 18,600 -1,920 Descending Minneapolis Center
05:26PM 44.8142 -94.9569 86° East 412 474 17,100 -1,740 Descending Minneapolis Center
05:27PM 44.8225 -94.8033 86° East 400 460 15,100 -1,980 Descending Minneapolis Center
05:28PM 44.8294 -94.6558 86° East 386 444 13,100 -1,860 Descending Minneapolis Center
05:29PM 44.8367 -94.5247 86° East 373 429 11,300 -1,860 Descending Minneapolis Center
05:30PM 44.8417 -94.3869 87° East 356 410 9,400 -1,620 Descending Minneapolis Center
05:31PM 44.8500 -94.2258 86° East 343 395 8,100 -1,140 Descending Minneapolis Center
05:32PM 44.8639 -94.1042 81° East 314 361 7,100 -1,080 Descending Minneapolis Center
05:33PM 44.8531 -93.9836 97° East 313 360 6,000 -1,080 Descending Minneapolis Center
05:34PM 44.8358 -93.8631 101° East 313 360 5,000 -540 Descending Minneapolis Center
05:35PM 44.8236 -93.7517 99° East 291 335 5,000  Level Minneapolis Center
05:36PM 44.8097 -93.6475 101° East 275 316 5,000  Level Minneapolis Center
05:37PM 44.7992 -93.5586 99° East 231 266 5,000  Level Minneapolis Center
05:38PM 44.7872 -93.4728 101° East 223 257 5,000  Level Minneapolis Center
05:39PM 44.7806 -93.3861 96° East 225 259 5,000  Level Minneapolis Center
05:40PM 44.8075 -93.3108 63° Northeast 214 246 5,000  Level Minneapolis Center
05:41PM 44.8358 -93.2353 62° Northeast 214 246 5,000 -300 Level Minneapolis Center
05:42PM 44.8794 -93.1803 42° Northeast 207 238 4,400 -1,200 Descending Minneapolis Center
05:43PM 44.9217 -93.0944 55° Northeast 220 253 2,600 -1,080 Descending Minneapolis Center
05:44PM 44.9506 -93.0289 58° Northeast 200 230 2,300 -360 Descending Minneapolis Center
05:45PM 44.9183 -93.0000 148° Southeast 163 188 1,900 -600 Descending Minneapolis Center
05:46PM 44.9119 -93.0461 259° West 131 151 1,100 -840 Descending Minneapolis Center